Time,TemperatureF,DewpointF,PressureIn,WindDirection,WindDirectionDegrees,WindSpeedMPH,WindSpeedGustMPH,Humidity,HourlyPrecipIn,Conditions,Clouds,dailyrainin,SolarRadiationWatts/m^2,SoftwareType,DateUTC
2013-01-28 00:01:00,34.0,34.0,-100.00,North,0,0.0,1.0,100,0.00,,,0.31,51.000000,,2013-01-28 08:01:00,
2013-01-28 00:11:00,34.0,34.0,-100.00,North,0,0.0,1.0,100,0.00,,,0.31,51.000000,,2013-01-28 08:11:00,
2013-01-28 00:21:00,34.0,34.0,-100.00,North,0,0.0,1.0,100,0.00,,,0.31,51.000000,,2013-01-28 08:21:00,
2013-01-28 00:31:00,34.0,34.0,-100.00,North,0,0.0,1.0,100,0.00,,,0.31,51.000000,,2013-01-28 08:31:00,
2013-01-28 01:02:00,34.0,34.0,-100.00,ESE,122,0.0,3.0,100,0.00,,,0.31,51.000000,,2013-01-28 09:02:00,
2013-01-28 01:11:00,34.0,34.0,-100.00,ESE,122,0.0,3.0,100,0.00,,,0.31,51.000000,,2013-01-28 09:11:00,
2013-01-28 01:21:00,34.0,34.0,-100.00,ESE,122,0.0,3.0,100,0.00,,,0.31,51.000000,,2013-01-28 09:21:00,
2013-01-28 01:31:00,34.0,34.0,-100.00,ESE,122,0.0,3.0,100,0.00,,,0.31,51.000000,,2013-01-28 09:31:00,
2013-01-28 01:52:00,33.0,33.0,-100.00,North,0,0.0,1.0,100,0.00,,,0.31,51.000000,,2013-01-28 09:52:00,
2013-01-28 02:01:00,33.0,33.0,-100.00,North,0,0.0,1.0,100,0.00,,,0.31,51.000000,,2013-01-28 10:01:00,
2013-01-28 02:11:00,33.0,33.0,-100.00,North,0,0.0,1.0,100,0.00,,,0.31,51.000000,,2013-01-28 10:11:00,
2013-01-28 02:21:00,33.0,33.0,-100.00,North,0,0.0,1.0,100,0.00,,,0.31,51.000000,,2013-01-28 10:21:00,
2013-01-28 02:31:00,33.0,33.0,-100.00,North,0,0.0,1.0,100,0.00,,,0.31,51.000000,,2013-01-28 10:31:00,
2013-01-28 03:02:00,33.0,33.0,-100.00,North,0,0.0,1.0,100,0.00,,,0.31,51.000000,,2013-01-28 11:02:00,
2013-01-28 03:11:00,33.0,33.0,-100.00,North,0,0.0,1.0,100,0.00,,,0.31,51.000000,,2013-01-28 11:11:00,
2013-01-28 03:21:00,33.0,33.0,-100.00,North,0,0.0,1.0,100,0.00,,,0.31,51.000000,,2013-01-28 11:21:00,
2013-01-28 03:32:00,33.0,33.0,-100.00,North,0,0.0,1.0,100,0.00,,,0.31,51.000000,,2013-01-28 11:32:00,
2013-01-28 03:52:00,32.0,32.0,-100.00,North,0,0.0,1.0,100,0.00,,,0.31,51.000000,,2013-01-28 11:52:00,
2013-01-28 04:03:00,32.0,32.0,-100.00,North,0,0.0,1.0,100,0.00,,,0.31,51.000000,,2013-01-28 12:03:00,
2013-01-28 04:11:00,32.0,32.0,-100.00,North,0,0.0,1.0,100,0.00,,,0.31,51.000000,,2013-01-28 12:11:00,
2013-01-28 04:23:00,32.0,32.0,-100.00,North,0,0.0,1.0,100,0.00,,,0.31,51.000000,,2013-01-28 12:23:00,
2013-01-28 04:32:00,32.0,32.0,-100.00,North,0,0.0,1.0,100,0.00,,,0.31,51.000000,,2013-01-28 12:32:00,
2013-01-28 05:02:00,32.0,32.0,-100.00,NNE,28,0.0,1.0,100,0.00,,,0.31,51.000000,,2013-01-28 13:02:00,
2013-01-28 05:11:00,32.0,32.0,-100.00,NNE,28,0.0,1.0,100,0.00,,,0.31,51.000000,,2013-01-28 13:11:00,
2013-01-28 05:22:00,32.0,32.0,-100.00,NNE,28,0.0,1.0,100,0.00,,,0.31,51.000000,,2013-01-28 13:22:00,
2013-01-28 05:32:00,32.0,32.0,-100.00,NNE,28,0.0,1.0,100,0.00,,,0.31,51.000000,,2013-01-28 13:32:00,
2013-01-28 06:02:00,32.0,32.0,-100.00,North,0,0.0,1.0,100,0.00,,,0.31,51.000000,,2013-01-28 14:02:00,
2013-01-28 06:12:00,32.0,32.0,-100.00,North,0,0.0,1.0,100,0.00,,,0.31,51.000000,,2013-01-28 14:12:00,
2013-01-28 06:22:00,32.0,32.0,-100.00,North,0,0.0,1.0,100,0.00,,,0.31,51.000000,,2013-01-28 14:22:00,
2013-01-28 06:32:00,32.0,32.0,-100.00,North,0,0.0,1.0,100,0.00,,,0.31,51.000000,,2013-01-28 14:32:00,
2013-01-28 07:03:00,32.0,32.0,-100.00,SW,223,0.0,1.0,100,0.00,,,0.31,51.000000,,2013-01-28 15:03:00,
2013-01-28 07:12:00,32.0,32.0,-100.00,SW,223,0.0,1.0,100,0.00,,,0.31,51.000000,,2013-01-28 15:12:00,
2013-01-28 07:23:00,32.0,32.0,-100.00,SW,223,0.0,1.0,100,0.00,,,0.31,51.000000,,2013-01-28 15:23:00,
2013-01-28 07:32:00,32.0,32.0,-100.00,SW,223,0.0,1.0,100,0.00,,,0.31,51.000000,,2013-01-28 15:32:00,
2013-01-28 07:53:00,32.0,32.0,-100.00,North,0,0.0,0.0,100,0.00,,,0.31,51.000000,,2013-01-28 15:53:00,
2013-01-28 08:03:00,32.0,32.0,-100.00,North,0,0.0,0.0,100,0.00,,,0.31,51.000000,,2013-01-28 16:03:00,
2013-01-28 08:12:00,32.0,32.0,-100.00,North,0,0.0,0.0,100,0.00,,,0.31,51.000000,,2013-01-28 16:12:00,
2013-01-28 08:22:00,32.0,32.0,-100.00,North,0,0.0,0.0,100,0.00,,,0.31,51.000000,,2013-01-28 16:22:00,
2013-01-28 08:32:00,32.0,32.0,-100.00,North,0,0.0,0.0,100,0.00,,,0.31,51.000000,,2013-01-28 16:32:00,
2013-01-28 09:01:00,33.0,33.0,-100.00,North,0,0.0,0.0,100,0.00,,,0.31,51.000000,,2013-01-28 17:01:00,
2013-01-28 09:11:00,33.0,33.0,-100.00,North,0,0.0,0.0,100,0.00,,,0.31,51.000000,,2013-01-28 17:11:00,
2013-01-28 09:22:00,33.0,33.0,-100.00,North,0,0.0,0.0,100,0.00,,,0.31,51.000000,,2013-01-28 17:22:00,
2013-01-28 09:32:00,33.0,33.0,-100.00,North,0,0.0,0.0,100,0.00,,,0.31,51.000000,,2013-01-28 17:32:00,
2013-01-28 10:02:00,34.0,34.0,-100.00,SSW,202,0.0,2.0,100,0.00,,,0.31,51.000000,,2013-01-28 18:02:00,
2013-01-28 10:12:00,34.0,34.0,-100.00,SSW,202,0.0,2.0,100,0.00,,,0.31,51.000000,,2013-01-28 18:12:00,
2013-01-28 10:23:00,34.0,34.0,-100.00,SSW,202,0.0,2.0,100,0.00,,,0.31,51.000000,,2013-01-28 18:23:00,
2013-01-28 10:33:00,34.0,34.0,-100.00,SSW,202,0.0,2.0,100,0.00,,,0.31,51.000000,,2013-01-28 18:33:00,
2013-01-28 11:02:00,35.0,35.0,-100.00,SW,231,0.0,1.0,100,0.01,,,0.28,51.000000,,2013-01-28 19:02:00,
2013-01-28 11:12:00,35.0,35.0,-100.00,SW,231,0.0,1.0,100,0.01,,,0.28,51.000000,,2013-01-28 19:12:00,
2013-01-28 11:22:00,35.0,35.0,-100.00,SW,231,0.0,1.0,100,0.01,,,0.28,51.000000,,2013-01-28 19:22:00,
2013-01-28 11:32:00,35.0,35.0,-100.00,SW,231,0.0,1.0,100,0.01,,,0.28,51.000000,,2013-01-28 19:32:00,
2013-01-28 12:02:00,35.0,35.0,-100.00,North,0,0.0,1.0,100,0.00,,,-99.99,51.000000,,2013-01-28 20:02:00,
2013-01-28 12:11:00,35.0,35.0,-100.00,North,0,0.0,1.0,100,0.00,,,-99.99,51.000000,,2013-01-28 20:11:00,
2013-01-28 12:21:00,35.0,35.0,-100.00,North,0,0.0,1.0,100,0.00,,,-99.99,51.000000,,2013-01-28 20:21:00,
2013-01-28 12:32:00,35.0,35.0,-100.00,North,0,0.0,1.0,100,0.00,,,-99.99,51.000000,,2013-01-28 20:32:00,
2013-01-28 12:52:00,36.0,36.0,-100.00,SW,216,1.0,2.0,100,0.00,,,0.18,52.000000,,2013-01-28 20:52:00,
2013-01-28 13:03:00,36.0,36.0,-100.00,SW,216,1.0,2.0,100,0.00,,,0.18,52.000000,,2013-01-28 21:03:00,
2013-01-28 13:11:00,36.0,36.0,-100.00,SW,216,1.0,2.0,100,0.00,,,0.18,52.000000,,2013-01-28 21:11:00,
2013-01-28 13:22:00,36.0,36.0,-100.00,SW,216,1.0,2.0,100,0.00,,,0.18,52.000000,,2013-01-28 21:22:00,
2013-01-28 13:33:00,36.0,36.0,-100.00,SW,216,1.0,2.0,100,0.00,,,0.18,52.000000,,2013-01-28 21:33:00,
2013-01-28 14:01:00,37.0,37.0,-100.00,SSW,204,1.0,3.0,100,0.00,,,0.11,52.000000,,2013-01-28 22:01:00,
2013-01-28 14:11:00,37.0,37.0,-100.00,SSW,204,1.0,3.0,100,0.00,,,0.11,52.000000,,2013-01-28 22:11:00,
2013-01-28 14:22:00,37.0,37.0,-100.00,SSW,204,1.0,3.0,100,0.00,,,0.11,52.000000,,2013-01-28 22:22:00,
2013-01-28 14:32:00,37.0,37.0,-100.00,SSW,204,1.0,3.0,100,0.00,,,0.11,52.000000,,2013-01-28 22:32:00,
2013-01-28 15:02:00,38.0,38.0,-100.00,South,182,2.0,4.0,99,0.00,,,0.06,51.000000,,2013-01-28 23:02:00,
2013-01-28 15:11:00,38.0,38.0,-100.00,South,182,2.0,4.0,99,0.00,,,0.06,51.000000,,2013-01-28 23:11:00,
2013-01-28 15:22:00,38.0,38.0,-100.00,South,182,2.0,4.0,99,0.00,,,0.06,51.000000,,2013-01-28 23:22:00,
2013-01-28 15:32:00,38.0,38.0,-100.00,South,182,2.0,4.0,99,0.00,,,0.06,51.000000,,2013-01-28 23:32:00,
2013-01-28 16:02:00,38.0,38.0,-100.00,South,175,1.0,3.0,100,0.00,,,0.02,51.000000,,2013-01-29 00:02:00,
2013-01-28 16:12:00,38.0,38.0,-100.00,South,175,1.0,3.0,100,0.00,,,0.02,51.000000,,2013-01-29 00:12:00,
2013-01-28 16:22:00,38.0,38.0,-100.00,South,175,1.0,3.0,100,0.00,,,0.02,51.000000,,2013-01-29 00:22:00,
2013-01-28 16:32:00,38.0,38.0,-100.00,South,175,1.0,3.0,100,0.00,,,0.02,51.000000,,2013-01-29 00:32:00,
2013-01-28 17:02:00,37.0,37.0,-100.00,SSE,148,0.0,3.0,100,0.00,,,0.02,51.000000,,2013-01-29 01:02:00,
2013-01-28 17:11:00,37.0,37.0,-100.00,SSE,148,0.0,3.0,100,0.00,,,0.02,51.000000,,2013-01-29 01:11:00,
2013-01-28 17:22:00,37.0,37.0,-100.00,SSE,148,0.0,3.0,100,0.00,,,0.02,51.000000,,2013-01-29 01:22:00,
2013-01-28 17:31:00,37.0,37.0,-100.00,SSE,148,0.0,3.0,100,0.00,,,0.02,51.000000,,2013-01-29 01:31:00,
2013-01-28 18:02:00,37.0,37.0,-100.00,SE,145,0.0,2.0,100,0.00,,,0.02,51.000000,,2013-01-29 02:02:00,
2013-01-28 18:11:00,37.0,37.0,-100.00,SE,145,0.0,2.0,100,0.00,,,0.02,51.000000,,2013-01-29 02:11:00,
2013-01-28 18:21:00,37.0,37.0,-100.00,SE,145,0.0,2.0,100,0.00,,,0.02,51.000000,,2013-01-29 02:21:00,
2013-01-28 18:32:00,37.0,37.0,-100.00,SE,145,0.0,2.0,100,0.00,,,0.02,51.000000,,2013-01-29 02:32:00,
2013-01-28 19:02:00,36.0,36.0,-100.00,SSW,199,0.0,2.0,100,0.00,,,0.02,51.000000,,2013-01-29 03:02:00,
2013-01-28 19:11:00,36.0,36.0,-100.00,SSW,199,0.0,2.0,100,0.00,,,0.02,51.000000,,2013-01-29 03:11:00,
2013-01-28 19:21:00,36.0,36.0,-100.00,SSW,199,0.0,2.0,100,0.00,,,0.02,51.000000,,2013-01-29 03:21:00,
2013-01-28 19:31:00,36.0,36.0,-100.00,SSW,199,0.0,2.0,100,0.00,,,0.02,51.000000,,2013-01-29 03:31:00,
2013-01-28 19:53:00,36.0,36.0,-100.00,North,0,0.0,2.0,100,0.00,,,0.01,51.000000,,2013-01-29 03:53:00,
2013-01-28 20:02:00,36.0,36.0,-100.00,North,0,0.0,2.0,100,0.00,,,0.01,51.000000,,2013-01-29 04:02:00,
2013-01-28 20:11:00,36.0,36.0,-100.00,North,0,0.0,2.0,100,0.00,,,0.01,51.000000,,2013-01-29 04:11:00,
2013-01-28 20:21:00,36.0,36.0,-100.00,North,0,0.0,2.0,100,0.00,,,0.01,51.000000,,2013-01-29 04:21:00,
2013-01-28 20:31:00,36.0,36.0,-100.00,North,0,0.0,2.0,100,0.00,,,0.01,51.000000,,2013-01-29 04:31:00,
2013-01-28 21:03:00,36.0,36.0,-100.00,SE,124,0.0,1.0,100,0.00,,,0.01,51.000000,,2013-01-29 05:03:00,
2013-01-28 21:12:00,36.0,36.0,-100.00,SE,124,0.0,1.0,100,0.00,,,0.01,51.000000,,2013-01-29 05:12:00,
2013-01-28 21:21:00,36.0,36.0,-100.00,SE,124,0.0,1.0,100,0.00,,,0.01,51.000000,,2013-01-29 05:21:00,
2013-01-28 21:31:00,36.0,36.0,-100.00,SE,124,0.0,1.0,100,0.00,,,0.01,51.000000,,2013-01-29 05:31:00,
2013-01-28 22:01:00,36.0,36.0,-100.00,South,184,0.0,0.0,100,0.00,,,0.01,51.000000,,2013-01-29 06:01:00,
2013-01-28 22:11:00,36.0,36.0,-100.00,South,184,0.0,0.0,100,0.00,,,0.01,51.000000,,2013-01-29 06:11:00,
2013-01-28 22:21:00,36.0,36.0,-100.00,South,184,0.0,0.0,100,0.00,,,0.01,51.000000,,2013-01-29 06:21:00,
2013-01-28 22:31:00,36.0,36.0,-100.00,South,184,0.0,0.0,100,0.00,,,0.01,51.000000,,2013-01-29 06:31:00,
2013-01-28 23:01:00,36.0,36.0,-100.00,North,0,0.0,1.0,100,0.00,,,0.01,51.000000,,2013-01-29 07:01:00,
2013-01-28 23:11:00,36.0,36.0,-100.00,North,0,0.0,1.0,100,0.00,,,0.01,51.000000,,2013-01-29 07:11:00,
2013-01-28 23:21:00,36.0,36.0,-100.00,North,0,0.0,1.0,100,0.00,,,0.01,51.000000,,2013-01-29 07:21:00,
2013-01-28 23:31:00,36.0,36.0,-100.00,North,0,0.0,1.0,100,0.00,,,0.01,51.000000,,2013-01-29 07:31:00,
2013-01-28 23:52:00,36.0,36.0,-100.00,North,0,0.0,0.0,100,0.00,,,0.01,51.000000,,2013-01-29 07:52:00,